sensor_id;sensor_type;location;lat;lon;timestamp;P1;durP1;ratioP1;P2;durP2;ratioP2
9773;SDS011;4926;42.670;23.316;2023-04-24T00:02:12;13.18;;;9.10;;
9773;SDS011;4926;42.670;23.316;2023-04-24T00:04:39;10.35;;;8.75;;
9773;SDS011;4926;42.670;23.316;2023-04-24T00:07:09;9.50;;;8.02;;
9773;SDS011;4926;42.670;23.316;2023-04-24T00:09:36;10.88;;;8.40;;
9773;SDS011;4926;42.670;23.316;2023-04-24T00:12:07;10.23;;;8.30;;
9773;SDS011;4926;42.670;23.316;2023-04-24T00:14:33;11.63;;;8.10;;
9773;SDS011;4926;42.670;23.316;2023-04-24T00:17:00;10.95;;;8.02;;
9773;SDS011;4926;42.670;23.316;2023-04-24T00:19:27;10.07;;;8.13;;
9773;SDS011;4926;42.670;23.316;2023-04-24T00:21:59;9.73;;;7.75;;
9773;SDS011;4926;42.670;23.316;2023-04-24T00:24:28;13.10;;;8.18;;
9773;SDS011;4926;42.670;23.316;2023-04-24T00:26:57;10.98;;;8.05;;
9773;SDS011;4926;42.670;23.316;2023-04-24T00:29:34;11.10;;;8.57;;
9773;SDS011;4926;42.670;23.316;2023-04-24T00:32:00;10.75;;;7.88;;
9773;SDS011;4926;42.670;23.316;2023-04-24T00:34:27;9.23;;;8.07;;
9773;SDS011;4926;42.670;23.316;2023-04-24T00:36:54;10.98;;;7.88;;
9773;SDS011;4926;42.670;23.316;2023-04-24T00:39:21;10.80;;;8.50;;
9773;SDS011;4926;42.670;23.316;2023-04-24T00:41:48;9.27;;;7.07;;
9773;SDS011;4926;42.670;23.316;2023-04-24T00:44:16;13.95;;;7.95;;
9773;SDS011;4926;42.670;23.316;2023-04-24T00:46:44;11.85;;;7.72;;
9773;SDS011;4926;42.670;23.316;2023-04-24T00:49:17;9.43;;;7.10;;
9773;SDS011;4926;42.670;23.316;2023-04-24T00:51:44;12.13;;;6.50;;
9773;SDS011;4926;42.670;23.316;2023-04-24T00:54:12;8.40;;;5.97;;
9773;SDS011;4926;42.670;23.316;2023-04-24T00:56:39;9.15;;;6.28;;
9773;SDS011;4926;42.670;23.316;2023-04-24T00:59:06;7.45;;;6.10;;
9773;SDS011;4926;42.670;23.316;2023-04-24T01:01:33;7.90;;;6.03;;
9773;SDS011;4926;42.670;23.316;2023-04-24T01:04:01;10.60;;;5.75;;
9773;SDS011;4926;42.670;23.316;2023-04-24T01:06:31;11.18;;;5.43;;
9773;SDS011;4926;42.670;23.316;2023-04-24T01:08:58;7.38;;;5.25;;
9773;SDS011;4926;42.670;23.316;2023-04-24T01:11:28;7.25;;;5.35;;
9773;SDS011;4926;42.670;23.316;2023-04-24T01:13:56;8.20;;;5.13;;
9773;SDS011;4926;42.670;23.316;2023-04-24T01:16:23;6.40;;;5.20;;
9773;SDS011;4926;42.670;23.316;2023-04-24T01:18:54;6.80;;;5.30;;
9773;SDS011;4926;42.670;23.316;2023-04-24T01:21:23;6.93;;;4.80;;
9773;SDS011;4926;42.670;23.316;2023-04-24T01:23:55;10.02;;;5.75;;
9773;SDS011;4926;42.670;23.316;2023-04-24T01:26:22;8.10;;;5.47;;
9773;SDS011;4926;42.670;23.316;2023-04-24T01:28:51;9.43;;;5.93;;
9773;SDS011;4926;42.670;23.316;2023-04-24T01:31:19;6.22;;;5.43;;
9773;SDS011;4926;42.670;23.316;2023-04-24T01:33:46;9.70;;;6.00;;
9773;SDS011;4926;42.670;23.316;2023-04-24T01:36:13;6.25;;;5.43;;
9773;SDS011;4926;42.670;23.316;2023-04-24T01:38:40;8.25;;;5.25;;
9773;SDS011;4926;42.670;23.316;2023-04-24T01:41:08;7.80;;;5.43;;
9773;SDS011;4926;42.670;23.316;2023-04-24T01:43:35;5.72;;;5.07;;
9773;SDS011;4926;42.670;23.316;2023-04-24T01:46:02;7.00;;;5.07;;
9773;SDS011;4926;42.670;23.316;2023-04-24T01:48:32;6.40;;;5.13;;
9773;SDS011;4926;42.670;23.316;2023-04-24T01:50:59;7.03;;;5.45;;
9773;SDS011;4926;42.670;23.316;2023-04-24T01:53:26;6.05;;;5.07;;
9773;SDS011;4926;42.670;23.316;2023-04-24T01:55:53;12.07;;;5.50;;
9773;SDS011;4926;42.670;23.316;2023-04-24T01:58:21;8.52;;;5.25;;
9773;SDS011;4926;42.670;23.316;2023-04-24T02:00:52;7.53;;;5.53;;
9773;SDS011;4926;42.670;23.316;2023-04-24T02:03:24;7.03;;;5.53;;
9773;SDS011;4926;42.670;23.316;2023-04-24T02:05:54;7.78;;;5.55;;
9773;SDS011;4926;42.670;23.316;2023-04-24T02:08:23;7.28;;;5.80;;
9773;SDS011;4926;42.670;23.316;2023-04-24T02:10:50;7.85;;;6.10;;
9773;SDS011;4926;42.670;23.316;2023-04-24T02:13:19;12.07;;;5.93;;
9773;SDS011;4926;42.670;23.316;2023-04-24T02:15:47;7.28;;;6.20;;
9773;SDS011;4926;42.670;23.316;2023-04-24T02:18:16;6.82;;;6.07;;
9773;SDS011;4926;42.670;23.316;2023-04-24T02:20:47;11.48;;;5.82;;
9773;SDS011;4926;42.670;23.316;2023-04-24T02:23:14;10.35;;;6.13;;
9773;SDS011;4926;42.670;23.316;2023-04-24T02:25:41;8.35;;;6.60;;
9773;SDS011;4926;42.670;23.316;2023-04-24T02:28:07;6.65;;;5.80;;
9773;SDS011;4926;42.670;23.316;2023-04-24T02:30:34;7.97;;;5.80;;
9773;SDS011;4926;42.670;23.316;2023-04-24T02:33:02;6.88;;;5.70;;
9773;SDS011;4926;42.670;23.316;2023-04-24T02:35:29;7.28;;;5.72;;
9773;SDS011;4926;42.670;23.316;2023-04-24T02:37:56;8.45;;;5.90;;
9773;SDS011;4926;42.670;23.316;2023-04-24T02:40:24;9.13;;;5.93;;
9773;SDS011;4926;42.670;23.316;2023-04-24T02:42:56;6.50;;;5.70;;
9773;SDS011;4926;42.670;23.316;2023-04-24T02:45:23;7.50;;;6.45;;
9773;SDS011;4926;42.670;23.316;2023-04-24T02:47:50;8.75;;;6.07;;
9773;SDS011;4926;42.670;23.316;2023-04-24T02:50:18;7.07;;;5.90;;
9773;SDS011;4926;42.670;23.316;2023-04-24T02:52:44;6.63;;;5.68;;
9773;SDS011;4926;42.670;23.316;2023-04-24T02:55:15;9.18;;;6.30;;
9773;SDS011;4926;42.670;23.316;2023-04-24T02:57:44;10.55;;;5.93;;
9773;SDS011;4926;42.670;23.316;2023-04-24T03:00:11;10.48;;;6.20;;
9773;SDS011;4926;42.670;23.316;2023-04-24T03:02:38;12.90;;;6.03;;
9773;SDS011;4926;42.670;23.316;2023-04-24T03:05:05;8.63;;;6.10;;
9773;SDS011;4926;42.670;23.316;2023-04-24T03:07:34;10.70;;;6.35;;
9773;SDS011;4926;42.670;23.316;2023-04-24T03:10:06;10.90;;;5.78;;
9773;SDS011;4926;42.670;23.316;2023-04-24T03:12:39;8.20;;;6.35;;
9773;SDS011;4926;42.670;23.316;2023-04-24T03:15:09;7.63;;;6.05;;
9773;SDS011;4926;42.670;23.316;2023-04-24T03:17:36;8.77;;;6.15;;
9773;SDS011;4926;42.670;23.316;2023-04-24T03:20:07;11.07;;;6.03;;
9773;SDS011;4926;42.670;23.316;2023-04-24T03:22:36;9.15;;;6.28;;
9773;SDS011;4926;42.670;23.316;2023-04-24T03:25:03;7.78;;;6.07;;
9773;SDS011;4926;42.670;23.316;2023-04-24T03:27:30;8.60;;;6.07;;
9773;SDS011;4926;42.670;23.316;2023-04-24T03:29:57;9.55;;;6.22;;
9773;SDS011;4926;42.670;23.316;2023-04-24T03:32:24;8.38;;;5.93;;
9773;SDS011;4926;42.670;23.316;2023-04-24T03:34:50;11.10;;;6.72;;
9773;SDS011;4926;42.670;23.316;2023-04-24T03:37:19;7.85;;;6.28;;
9773;SDS011;4926;42.670;23.316;2023-04-24T03:39:50;10.07;;;6.68;;
9773;SDS011;4926;42.670;23.316;2023-04-24T03:42:16;13.20;;;7.65;;
9773;SDS011;4926;42.670;23.316;2023-04-24T03:44:46;9.43;;;6.70;;
9773;SDS011;4926;42.670;23.316;2023-04-24T03:47:15;12.93;;;7.68;;
9773;SDS011;4926;42.670;23.316;2023-04-24T03:49:44;9.85;;;7.70;;
9773;SDS011;4926;42.670;23.316;2023-04-24T03:52:14;12.88;;;8.80;;
9773;SDS011;4926;42.670;23.316;2023-04-24T03:54:43;11.50;;;8.48;;
9773;SDS011;4926;42.670;23.316;2023-04-24T03:57:11;11.35;;;8.55;;
9773;SDS011;4926;42.670;23.316;2023-04-24T03:59:38;12.13;;;8.73;;
9773;SDS011;4926;42.670;23.316;2023-04-24T04:02:05;13.93;;;8.68;;
9773;SDS011;4926;42.670;23.316;2023-04-24T04:04:32;12.82;;;9.35;;
9773;SDS011;4926;42.670;23.316;2023-04-24T04:06:59;12.40;;;9.45;;
9773;SDS011;4926;42.670;23.316;2023-04-24T04:09:28;13.50;;;8.73;;
9773;SDS011;4926;42.670;23.316;2023-04-24T04:11:55;20.33;;;9.05;;
9773;SDS011;4926;42.670;23.316;2023-04-24T04:14:31;12.45;;;8.18;;
9773;SDS011;4926;42.670;23.316;2023-04-24T04:16:58;10.63;;;8.25;;
9773;SDS011;4926;42.670;23.316;2023-04-24T04:19:25;12.77;;;8.27;;
9773;SDS011;4926;42.670;23.316;2023-04-24T04:21:52;10.98;;;8.38;;
9773;SDS011;4926;42.670;23.316;2023-04-24T04:24:21;16.48;;;8.18;;
9773;SDS011;4926;42.670;23.316;2023-04-24T04:26:49;15.05;;;8.13;;
9773;SDS011;4926;42.670;23.316;2023-04-24T04:29:16;11.68;;;7.97;;
9773;SDS011;4926;42.670;23.316;2023-04-24T04:31:44;11.52;;;8.30;;
9773;SDS011;4926;42.670;23.316;2023-04-24T04:34:10;10.38;;;8.05;;
9773;SDS011;4926;42.670;23.316;2023-04-24T04:36:37;10.07;;;7.15;;
9773;SDS011;4926;42.670;23.316;2023-04-24T04:39:05;10.40;;;8.05;;
9773;SDS011;4926;42.670;23.316;2023-04-24T04:41:32;12.13;;;7.03;;
9773;SDS011;4926;42.670;23.316;2023-04-24T04:44:01;9.82;;;6.82;;
9773;SDS011;4926;42.670;23.316;2023-04-24T04:46:29;8.43;;;6.55;;
9773;SDS011;4926;42.670;23.316;2023-04-24T04:49:00;8.40;;;6.72;;
9773;SDS011;4926;42.670;23.316;2023-04-24T04:51:27;8.57;;;5.50;;
9773;SDS011;4926;42.670;23.316;2023-04-24T04:53:55;6.90;;;5.38;;
9773;SDS011;4926;42.670;23.316;2023-04-24T04:56:21;15.32;;;5.50;;
9773;SDS011;4926;42.670;23.316;2023-04-24T04:58:48;9.05;;;6.18;;
9773;SDS011;4926;42.670;23.316;2023-04-24T05:01:15;12.23;;;6.35;;
9773;SDS011;4926;42.670;23.316;2023-04-24T05:03:42;6.95;;;6.00;;
9773;SDS011;4926;42.670;23.316;2023-04-24T05:06:10;9.88;;;5.10;;
9773;SDS011;4926;42.670;23.316;2023-04-24T05:08:37;12.55;;;6.72;;
9773;SDS011;4926;42.670;23.316;2023-04-24T05:11:04;6.75;;;4.78;;
9773;SDS011;4926;42.670;23.316;2023-04-24T05:13:31;6.78;;;5.20;;
9773;SDS011;4926;42.670;23.316;2023-04-24T05:15:58;8.18;;;5.28;;
9773;SDS011;4926;42.670;23.316;2023-04-24T05:18:24;9.60;;;5.30;;
9773;SDS011;4926;42.670;23.316;2023-04-24T05:20:54;9.55;;;5.30;;
9773;SDS011;4926;42.670;23.316;2023-04-24T05:23:22;6.40;;;4.88;;
9773;SDS011;4926;42.670;23.316;2023-04-24T05:25:51;6.00;;;5.25;;
9773;SDS011;4926;42.670;23.316;2023-04-24T05:28:20;10.75;;;5.60;;
9773;SDS011;4926;42.670;23.316;2023-04-24T05:30:47;9.40;;;5.25;;
9773;SDS011;4926;42.670;23.316;2023-04-24T05:33:14;8.45;;;5.55;;
9773;SDS011;4926;42.670;23.316;2023-04-24T05:35:47;7.82;;;5.70;;
9773;SDS011;4926;42.670;23.316;2023-04-24T05:38:14;8.20;;;5.45;;
9773;SDS011;4926;42.670;23.316;2023-04-24T05:40:44;9.13;;;5.68;;
9773;SDS011;4926;42.670;23.316;2023-04-24T05:43:10;9.75;;;6.20;;
9773;SDS011;4926;42.670;23.316;2023-04-24T05:45:40;13.05;;;6.28;;
9773;SDS011;4926;42.670;23.316;2023-04-24T05:48:10;8.52;;;5.60;;
9773;SDS011;4926;42.670;23.316;2023-04-24T05:50:37;9.75;;;6.53;;
9773;SDS011;4926;42.670;23.316;2023-04-24T05:53:06;9.73;;;6.65;;
9773;SDS011;4926;42.670;23.316;2023-04-24T05:55:35;8.98;;;6.10;;
9773;SDS011;4926;42.670;23.316;2023-04-24T05:58:04;9.13;;;6.47;;
9773;SDS011;4926;42.670;23.316;2023-04-24T06:00:31;9.93;;;5.85;;
9773;SDS011;4926;42.670;23.316;2023-04-24T06:02:59;9.52;;;7.50;;
9773;SDS011;4926;42.670;23.316;2023-04-24T06:05:25;12.70;;;6.78;;
9773;SDS011;4926;42.670;23.316;2023-04-24T06:07:52;13.55;;;6.63;;
9773;SDS011;4926;42.670;23.316;2023-04-24T06:10:19;7.60;;;6.80;;
9773;SDS011;4926;42.670;23.316;2023-04-24T06:12:48;9.90;;;6.65;;
9773;SDS011;4926;42.670;23.316;2023-04-24T06:15:18;12.93;;;8.15;;
9773;SDS011;4926;42.670;23.316;2023-04-24T06:17:45;10.25;;;7.93;;
9773;SDS011;4926;42.670;23.316;2023-04-24T06:20:15;11.27;;;7.45;;
9773;SDS011;4926;42.670;23.316;2023-04-24T06:22:47;11.55;;;8.40;;
9773;SDS011;4926;42.670;23.316;2023-04-24T06:25:14;12.32;;;9.13;;
9773;SDS011;4926;42.670;23.316;2023-04-24T06:27:41;12.65;;;8.45;;
9773;SDS011;4926;42.670;23.316;2023-04-24T06:30:08;11.05;;;8.13;;
9773;SDS011;4926;42.670;23.316;2023-04-24T06:32:37;16.35;;;8.80;;
9773;SDS011;4926;42.670;23.316;2023-04-24T06:35:04;14.27;;;9.05;;
9773;SDS011;4926;42.670;23.316;2023-04-24T06:37:33;11.32;;;8.50;;
9773;SDS011;4926;42.670;23.316;2023-04-24T06:40:01;9.85;;;7.88;;
9773;SDS011;4926;42.670;23.316;2023-04-24T06:42:28;12.48;;;7.90;;
9773;SDS011;4926;42.670;23.316;2023-04-24T06:44:55;17.13;;;8.38;;
9773;SDS011;4926;42.670;23.316;2023-04-24T06:47:22;8.80;;;7.60;;
9773;SDS011;4926;42.670;23.316;2023-04-24T06:49:50;12.50;;;8.65;;
9773;SDS011;4926;42.670;23.316;2023-04-24T06:52:17;16.75;;;8.35;;
9773;SDS011;4926;42.670;23.316;2023-04-24T06:54:44;12.75;;;9.02;;
9773;SDS011;4926;42.670;23.316;2023-04-24T06:57:11;14.23;;;8.27;;
9773;SDS011;4926;42.670;23.316;2023-04-24T06:59:38;11.82;;;8.70;;
9773;SDS011;4926;42.670;23.316;2023-04-24T07:02:07;11.75;;;8.40;;
9773;SDS011;4926;42.670;23.316;2023-04-24T07:04:34;11.10;;;8.25;;
9773;SDS011;4926;42.670;23.316;2023-04-24T07:07:17;13.85;;;8.20;;
9773;SDS011;4926;42.670;23.316;2023-04-24T07:09:46;13.50;;;8.82;;
9773;SDS011;4926;42.670;23.316;2023-04-24T07:12:16;12.77;;;9.07;;
9773;SDS011;4926;42.670;23.316;2023-04-24T07:14:45;12.45;;;9.07;;
9773;SDS011;4926;42.670;23.316;2023-04-24T07:17:14;10.63;;;8.18;;
9773;SDS011;4926;42.670;23.316;2023-04-24T07:19:41;13.57;;;8.18;;
9773;SDS011;4926;42.670;23.316;2023-04-24T07:22:08;13.57;;;8.73;;
9773;SDS011;4926;42.670;23.316;2023-04-24T07:24:38;14.57;;;8.95;;
9773;SDS011;4926;42.670;23.316;2023-04-24T07:27:05;10.32;;;9.27;;
9773;SDS011;4926;42.670;23.316;2023-04-24T07:29:34;15.82;;;9.38;;
9773;SDS011;4926;42.670;23.316;2023-04-24T07:32:01;9.68;;;7.97;;
9773;SDS011;4926;42.670;23.316;2023-04-24T07:34:28;10.23;;;6.90;;
9773;SDS011;4926;42.670;23.316;2023-04-24T07:36:55;12.27;;;7.22;;
9773;SDS011;4926;42.670;23.316;2023-04-24T07:39:21;9.93;;;7.68;;
9773;SDS011;4926;42.670;23.316;2023-04-24T07:41:49;15.15;;;7.90;;
9773;SDS011;4926;42.670;23.316;2023-04-24T07:44:16;15.15;;;7.60;;
9773;SDS011;4926;42.670;23.316;2023-04-24T07:46:43;13.23;;;6.72;;
9773;SDS011;4926;42.670;23.316;2023-04-24T07:49:10;8.38;;;6.80;;
9773;SDS011;4926;42.670;23.316;2023-04-24T07:51:36;14.07;;;7.53;;
9773;SDS011;4926;42.670;23.316;2023-04-24T07:54:06;12.60;;;7.90;;
9773;SDS011;4926;42.670;23.316;2023-04-24T07:56:33;15.05;;;8.43;;
9773;SDS011;4926;42.670;23.316;2023-04-24T07:59:05;10.85;;;7.25;;
9773;SDS011;4926;42.670;23.316;2023-04-24T08:01:31;7.68;;;6.63;;
9773;SDS011;4926;42.670;23.316;2023-04-24T08:03:58;10.73;;;6.90;;
9773;SDS011;4926;42.670;23.316;2023-04-24T08:06:25;11.65;;;6.63;;
9773;SDS011;4926;42.670;23.316;2023-04-24T08:08:55;13.32;;;6.93;;
9773;SDS011;4926;42.670;23.316;2023-04-24T08:11:22;12.55;;;7.28;;
9773;SDS011;4926;42.670;23.316;2023-04-24T08:13:51;11.20;;;7.55;;
9773;SDS011;4926;42.670;23.316;2023-04-24T08:16:20;10.07;;;6.80;;
9773;SDS011;4926;42.670;23.316;2023-04-24T08:18:48;11.68;;;7.30;;
9773;SDS011;4926;42.670;23.316;2023-04-24T08:21:15;9.02;;;7.18;;
9773;SDS011;4926;42.670;23.316;2023-04-24T08:23:43;13.00;;;7.13;;
9773;SDS011;4926;42.670;23.316;2023-04-24T08:26:10;9.38;;;7.20;;
9773;SDS011;4926;42.670;23.316;2023-04-24T08:28:37;7.85;;;7.03;;
9773;SDS011;4926;42.670;23.316;2023-04-24T08:31:04;11.07;;;7.60;;
9773;SDS011;4926;42.670;23.316;2023-04-24T08:33:32;9.63;;;7.03;;
9773;SDS011;4926;42.670;23.316;2023-04-24T08:36:00;10.20;;;6.82;;
9773;SDS011;4926;42.670;23.316;2023-04-24T08:38:27;7.63;;;6.60;;
9773;SDS011;4926;42.670;23.316;2023-04-24T08:40:54;7.78;;;6.22;;
9773;SDS011;4926;42.670;23.316;2023-04-24T08:43:22;8.70;;;6.32;;
9773;SDS011;4926;42.670;23.316;2023-04-24T08:45:55;7.45;;;6.00;;
9773;SDS011;4926;42.670;23.316;2023-04-24T08:48:22;10.25;;;6.47;;
9773;SDS011;4926;42.670;23.316;2023-04-24T08:50:51;9.60;;;6.50;;
9773;SDS011;4926;42.670;23.316;2023-04-24T08:53:20;7.38;;;6.40;;
9773;SDS011;4926;42.670;23.316;2023-04-24T08:55:47;8.52;;;5.90;;
9773;SDS011;4926;42.670;23.316;2023-04-24T08:58:16;8.43;;;6.38;;
9773;SDS011;4926;42.670;23.316;2023-04-24T09:00:43;11.63;;;5.97;;
9773;SDS011;4926;42.670;23.316;2023-04-24T09:03:15;9.45;;;6.40;;
9773;SDS011;4926;42.670;23.316;2023-04-24T09:05:42;9.27;;;6.57;;
9773;SDS011;4926;42.670;23.316;2023-04-24T09:08:13;8.18;;;5.72;;
9773;SDS011;4926;42.670;23.316;2023-04-24T09:10:42;9.65;;;6.50;;
9773;SDS011;4926;42.670;23.316;2023-04-24T09:13:09;8.13;;;6.10;;
9773;SDS011;4926;42.670;23.316;2023-04-24T09:15:37;8.82;;;5.35;;
9773;SDS011;4926;42.670;23.316;2023-04-24T09:18:04;8.90;;;5.38;;
9773;SDS011;4926;42.670;23.316;2023-04-24T09:20:31;9.20;;;5.50;;
9773;SDS011;4926;42.670;23.316;2023-04-24T09:23:00;10.43;;;6.30;;
9773;SDS011;4926;42.670;23.316;2023-04-24T09:25:33;6.82;;;5.55;;
9773;SDS011;4926;42.670;23.316;2023-04-24T09:28:03;8.23;;;5.38;;
9773;SDS011;4926;42.670;23.316;2023-04-24T09:30:32;6.10;;;5.45;;
9773;SDS011;4926;42.670;23.316;2023-04-24T09:33:09;5.85;;;5.20;;
9773;SDS011;4926;42.670;23.316;2023-04-24T09:35:37;7.68;;;5.32;;
9773;SDS011;4926;42.670;23.316;2023-04-24T09:38:08;13.23;;;5.53;;
9773;SDS011;4926;42.670;23.316;2023-04-24T09:40:36;10.82;;;5.20;;
9773;SDS011;4926;42.670;23.316;2023-04-24T09:43:03;5.90;;;5.30;;
9773;SDS011;4926;42.670;23.316;2023-04-24T09:45:34;7.78;;;4.95;;
9773;SDS011;4926;42.670;23.316;2023-04-24T09:48:02;7.25;;;5.22;;
9773;SDS011;4926;42.670;23.316;2023-04-24T09:50:30;7.95;;;5.32;;
9773;SDS011;4926;42.670;23.316;2023-04-24T09:53:01;9.10;;;5.20;;
9773;SDS011;4926;42.670;23.316;2023-04-24T09:55:29;7.28;;;5.22;;
9773;SDS011;4926;42.670;23.316;2023-04-24T09:58:00;11.55;;;5.93;;
9773;SDS011;4926;42.670;23.316;2023-04-24T10:00:30;9.48;;;5.60;;
9773;SDS011;4926;42.670;23.316;2023-04-24T10:02:58;10.68;;;5.50;;
9773;SDS011;4926;42.670;23.316;2023-04-24T10:05:27;9.02;;;5.22;;
9773;SDS011;4926;42.670;23.316;2023-04-24T10:08:00;8.20;;;5.25;;
9773;SDS011;4926;42.670;23.316;2023-04-24T10:10:28;7.38;;;4.63;;
9773;SDS011;4926;42.670;23.316;2023-04-24T10:12:55;8.23;;;4.68;;
9773;SDS011;4926;42.670;23.316;2023-04-24T10:15:23;7.00;;;4.68;;
9773;SDS011;4926;42.670;23.316;2023-04-24T10:17:52;7.00;;;5.05;;
9773;SDS011;4926;42.670;23.316;2023-04-24T10:20:19;5.50;;;4.50;;
9773;SDS011;4926;42.670;23.316;2023-04-24T10:22:48;7.00;;;4.63;;
9773;SDS011;4926;42.670;23.316;2023-04-24T10:25:16;6.47;;;4.78;;
9773;SDS011;4926;42.670;23.316;2023-04-24T10:27:46;8.55;;;5.13;;
9773;SDS011;4926;42.670;23.316;2023-04-24T10:30:15;6.97;;;4.53;;
9773;SDS011;4926;42.670;23.316;2023-04-24T10:32:44;6.65;;;4.15;;
9773;SDS011;4926;42.670;23.316;2023-04-24T10:35:13;7.70;;;4.55;;
9773;SDS011;4926;42.670;23.316;2023-04-24T10:37:42;10.02;;;5.10;;
9773;SDS011;4926;42.670;23.316;2023-04-24T10:40:12;6.72;;;4.55;;
9773;SDS011;4926;42.670;23.316;2023-04-24T10:42:46;6.57;;;4.55;;
9773;SDS011;4926;42.670;23.316;2023-04-24T10:45:17;5.35;;;4.28;;
9773;SDS011;4926;42.670;23.316;2023-04-24T10:47:55;7.03;;;4.68;;
9773;SDS011;4926;42.670;23.316;2023-04-24T10:50:23;5.13;;;4.43;;
9773;SDS011;4926;42.670;23.316;2023-04-24T10:52:53;4.70;;;3.97;;
9773;SDS011;4926;42.670;23.316;2023-04-24T10:58:10;5.20;;;4.45;;
9773;SDS011;4926;42.670;23.316;2023-04-24T11:00:38;7.22;;;4.40;;
9773;SDS011;4926;42.670;23.316;2023-04-24T11:03:23;10.27;;;5.10;;
9773;SDS011;4926;42.670;23.316;2023-04-24T11:05:53;4.55;;;4.15;;
9773;SDS011;4926;42.670;23.316;2023-04-24T11:08:29;6.38;;;5.10;;
9773;SDS011;4926;42.670;23.316;2023-04-24T11:10:58;8.30;;;4.53;;
9773;SDS011;4926;42.670;23.316;2023-04-24T11:13:31;6.95;;;4.40;;
9773;SDS011;4926;42.670;23.316;2023-04-24T11:16:34;7.47;;;4.97;;
9773;SDS011;4926;42.670;23.316;2023-04-24T11:19:05;7.82;;;4.40;;
9773;SDS011;4926;42.670;23.316;2023-04-24T11:21:42;10.52;;;4.78;;
9773;SDS011;4926;42.670;23.316;2023-04-24T11:27:17;5.97;;;3.72;;
9773;SDS011;4926;42.670;23.316;2023-04-24T11:29:46;5.03;;;3.40;;
9773;SDS011;4926;42.670;23.316;2023-04-24T11:32:17;5.07;;;3.28;;
9773;SDS011;4926;42.670;23.316;2023-04-24T11:34:47;4.22;;;3.60;;
9773;SDS011;4926;42.670;23.316;2023-04-24T11:37:14;4.78;;;3.92;;
9773;SDS011;4926;42.670;23.316;2023-04-24T11:39:41;6.53;;;4.20;;
9773;SDS011;4926;42.670;23.316;2023-04-24T11:42:08;3.47;;;3.17;;
9773;SDS011;4926;42.670;23.316;2023-04-24T11:44:37;4.03;;;3.63;;
9773;SDS011;4926;42.670;23.316;2023-04-24T11:47:07;3.88;;;3.47;;
9773;SDS011;4926;42.670;23.316;2023-04-24T11:49:36;7.63;;;4.35;;
9773;SDS011;4926;42.670;23.316;2023-04-24T11:52:04;5.25;;;4.35;;
9773;SDS011;4926;42.670;23.316;2023-04-24T11:54:31;4.80;;;3.60;;
9773;SDS011;4926;42.670;23.316;2023-04-24T11:56:58;4.78;;;4.30;;
9773;SDS011;4926;42.670;23.316;2023-04-24T11:59:39;5.75;;;4.18;;
9773;SDS011;4926;42.670;23.316;2023-04-24T12:02:05;5.93;;;4.38;;
9773;SDS011;4926;42.670;23.316;2023-04-24T12:04:38;4.88;;;4.47;;
9773;SDS011;4926;42.670;23.316;2023-04-24T12:07:07;5.72;;;5.03;;
9773;SDS011;4926;42.670;23.316;2023-04-24T12:09:41;5.28;;;4.78;;
9773;SDS011;4926;42.670;23.316;2023-04-24T12:12:08;6.10;;;4.43;;
9773;SDS011;4926;42.670;23.316;2023-04-24T12:17:25;5.68;;;4.05;;
9773;SDS011;4926;42.670;23.316;2023-04-24T12:19:59;7.05;;;4.25;;
9773;SDS011;4926;42.670;23.316;2023-04-24T12:22:42;4.18;;;3.78;;
9773;SDS011;4926;42.670;23.316;2023-04-24T12:25:10;6.78;;;4.18;;
9773;SDS011;4926;42.670;23.316;2023-04-24T12:27:37;4.95;;;3.50;;
9773;SDS011;4926;42.670;23.316;2023-04-24T12:30:10;4.15;;;3.50;;
9773;SDS011;4926;42.670;23.316;2023-04-24T12:32:40;5.10;;;3.60;;
9773;SDS011;4926;42.670;23.316;2023-04-24T12:35:11;4.00;;;3.63;;
9773;SDS011;4926;42.670;23.316;2023-04-24T12:37:41;3.35;;;3.05;;
9773;SDS011;4926;42.670;23.316;2023-04-24T12:40:09;3.50;;;3.00;;
9773;SDS011;4926;42.670;23.316;2023-04-24T12:42:41;4.10;;;3.45;;
9773;SDS011;4926;42.670;23.316;2023-04-24T12:45:09;4.15;;;3.70;;
9773;SDS011;4926;42.670;23.316;2023-04-24T12:47:37;3.72;;;3.00;;
9773;SDS011;4926;42.670;23.316;2023-04-24T12:50:05;5.78;;;3.38;;
9773;SDS011;4926;42.670;23.316;2023-04-24T12:52:35;4.60;;;3.60;;
9773;SDS011;4926;42.670;23.316;2023-04-24T12:55:04;6.47;;;3.78;;
9773;SDS011;4926;42.670;23.316;2023-04-24T12:57:34;5.50;;;3.72;;
9773;SDS011;4926;42.670;23.316;2023-04-24T13:00:05;4.85;;;3.53;;
9773;SDS011;4926;42.670;23.316;2023-04-24T13:02:33;4.75;;;4.22;;
9773;SDS011;4926;42.670;23.316;2023-04-24T13:05:02;4.35;;;3.95;;
9773;SDS011;4926;42.670;23.316;2023-04-24T13:07:31;4.25;;;3.85;;
9773;SDS011;4926;42.670;23.316;2023-04-24T13:10:01;5.35;;;4.43;;
9773;SDS011;4926;42.670;23.316;2023-04-24T13:12:31;5.43;;;3.83;;
9773;SDS011;4926;42.670;23.316;2023-04-24T13:14:58;6.20;;;3.92;;
9773;SDS011;4926;42.670;23.316;2023-04-24T13:17:27;7.07;;;4.07;;
9773;SDS011;4926;42.670;23.316;2023-04-24T13:19:54;5.68;;;3.70;;
9773;SDS011;4926;42.670;23.316;2023-04-24T13:22:21;4.45;;;3.55;;
9773;SDS011;4926;42.670;23.316;2023-04-24T13:24:48;5.88;;;3.95;;
9773;SDS011;4926;42.670;23.316;2023-04-24T13:27:14;6.65;;;4.10;;
9773;SDS011;4926;42.670;23.316;2023-04-24T13:29:43;9.63;;;5.50;;
9773;SDS011;4926;42.670;23.316;2023-04-24T13:32:10;4.90;;;4.43;;
9773;SDS011;4926;42.670;23.316;2023-04-24T13:34:36;4.00;;;3.60;;
9773;SDS011;4926;42.670;23.316;2023-04-24T13:37:03;5.60;;;3.63;;
9773;SDS011;4926;42.670;23.316;2023-04-24T13:39:30;4.20;;;3.80;;
9773;SDS011;4926;42.670;23.316;2023-04-24T13:41:57;4.88;;;4.18;;
9773;SDS011;4926;42.670;23.316;2023-04-24T13:44:24;6.10;;;4.47;;
9773;SDS011;4926;42.670;23.316;2023-04-24T13:46:53;5.28;;;3.85;;
9773;SDS011;4926;42.670;23.316;2023-04-24T13:49:22;4.55;;;3.92;;
9773;SDS011;4926;42.670;23.316;2023-04-24T13:51:51;4.85;;;4.05;;
9773;SDS011;4926;42.670;23.316;2023-04-24T13:54:18;5.57;;;4.28;;
9773;SDS011;4926;42.670;23.316;2023-04-24T13:56:45;6.50;;;4.10;;
9773;SDS011;4926;42.670;23.316;2023-04-24T13:59:12;5.28;;;3.63;;
9773;SDS011;4926;42.670;23.316;2023-04-24T14:01:41;5.63;;;3.70;;
9773;SDS011;4926;42.670;23.316;2023-04-24T14:04:14;5.32;;;3.90;;
9773;SDS011;4926;42.670;23.316;2023-04-24T14:06:40;7.03;;;3.80;;
9773;SDS011;4926;42.670;23.316;2023-04-24T14:09:07;7.00;;;3.90;;
9773;SDS011;4926;42.670;23.316;2023-04-24T14:11:34;6.45;;;3.88;;
9773;SDS011;4926;42.670;23.316;2023-04-24T14:14:03;6.28;;;3.90;;
9773;SDS011;4926;42.670;23.316;2023-04-24T14:16:31;6.28;;;3.92;;
9773;SDS011;4926;42.670;23.316;2023-04-24T14:18:58;4.85;;;3.78;;
9773;SDS011;4926;42.670;23.316;2023-04-24T14:21:26;5.72;;;3.50;;
9773;SDS011;4926;42.670;23.316;2023-04-24T14:23:53;8.65;;;3.55;;
9773;SDS011;4926;42.670;23.316;2023-04-24T14:26:20;7.18;;;3.83;;
9773;SDS011;4926;42.670;23.316;2023-04-24T14:28:47;5.80;;;3.90;;
9773;SDS011;4926;42.670;23.316;2023-04-24T14:31:18;6.82;;;4.13;;
9773;SDS011;4926;42.670;23.316;2023-04-24T14:33:44;5.85;;;4.43;;
9773;SDS011;4926;42.670;23.316;2023-04-24T14:36:11;5.68;;;4.10;;
9773;SDS011;4926;42.670;23.316;2023-04-24T14:38:39;4.35;;;3.58;;
9773;SDS011;4926;42.670;23.316;2023-04-24T14:41:06;4.70;;;3.72;;
9773;SDS011;4926;42.670;23.316;2023-04-24T14:43:35;4.35;;;3.97;;
9773;SDS011;4926;42.670;23.316;2023-04-24T14:46:02;4.05;;;3.70;;
9773;SDS011;4926;42.670;23.316;2023-04-24T14:48:34;5.18;;;3.65;;
9773;SDS011;4926;42.670;23.316;2023-04-24T14:51:01;4.15;;;3.75;;
9773;SDS011;4926;42.670;23.316;2023-04-24T14:53:27;5.20;;;3.97;;
9773;SDS011;4926;42.670;23.316;2023-04-24T14:56:01;5.70;;;3.80;;
9773;SDS011;4926;42.670;23.316;2023-04-24T14:58:28;4.65;;;3.67;;
9773;SDS011;4926;42.670;23.316;2023-04-24T15:00:55;6.05;;;3.63;;
9773;SDS011;4926;42.670;23.316;2023-04-24T15:03:22;5.10;;;3.95;;
9773;SDS011;4926;42.670;23.316;2023-04-24T15:05:49;4.80;;;4.38;;
9773;SDS011;4926;42.670;23.316;2023-04-24T15:08:16;4.63;;;4.22;;
9773;SDS011;4926;42.670;23.316;2023-04-24T15:10:43;6.05;;;4.82;;
9773;SDS011;4926;42.670;23.316;2023-04-24T15:13:13;5.15;;;4.60;;
9773;SDS011;4926;42.670;23.316;2023-04-24T15:15:40;7.80;;;4.90;;